createdAt,value
2023-08-31T00:09:06.556Z,17.76
2023-08-31T00:12:50.471Z,17.82
2023-08-31T00:33:23.281Z,17.61
2023-08-31T00:36:32.536Z,17.61
2023-08-31T01:00:41.707Z,17.59
2023-08-31T01:15:21.924Z,17.29
2023-08-31T01:18:03.304Z,17.44
2023-08-31T02:00:06.845Z,17.24
2023-08-31T02:08:01.508Z,17.09
2023-08-31T02:22:06.267Z,17.10
2023-08-31T02:26:04.993Z,17.08
2023-08-31T02:45:08.521Z,16.98
2023-08-31T02:59:36.279Z,16.87
2023-08-31T03:03:59.935Z,16.88
2023-08-31T03:12:32.083Z,16.86
2023-08-31T03:26:35.163Z,16.74
2023-08-31T03:40:27.341Z,16.90
2023-08-31T03:43:52.425Z,16.81
2023-08-31T04:02:36.395Z,16.93
2023-08-31T04:16:06.520Z,16.96
2023-08-31T04:49:16.133Z,17.05
2023-08-31T04:52:38.295Z,16.92
2023-08-31T04:55:45.377Z,16.86
2023-08-31T04:59:32.411Z,16.92
2023-08-31T05:02:00.815Z,16.93
2023-08-31T05:04:33.237Z,16.91
2023-08-31T05:07:09.337Z,16.88
2023-08-31T05:09:41.054Z,17.00
2023-08-31T05:14:38.892Z,17.22
2023-08-31T05:18:21.352Z,17.20
2023-08-31T05:21:48.239Z,17.26
2023-08-31T05:25:28.922Z,17.20
2023-08-31T05:27:58.074Z,17.15
2023-08-31T05:31:02.330Z,17.28
2023-08-31T05:33:34.921Z,17.46
2023-08-31T05:36:20.407Z,17.56
2023-08-31T05:38:49.308Z,17.70
2023-08-31T05:41:47.241Z,17.80
2023-08-31T05:45:48.892Z,17.89
2023-08-31T05:59:43.794Z,18.20
2023-08-31T06:02:46.062Z,18.18
2023-08-31T06:06:08.252Z,18.23
2023-08-31T06:09:55.624Z,18.22
2023-08-31T06:14:02.575Z,18.10
2023-08-31T06:17:45.963Z,18.19
2023-08-31T06:21:26.922Z,18.03
2023-08-31T06:36:32.756Z,18.04
2023-08-31T06:49:42.432Z,19.59
2023-08-31T07:03:27.021Z,20.10
2023-08-31T07:06:05.829Z,20.01
2023-08-31T07:09:52.210Z,19.94
2023-08-31T07:25:19.042Z,19.75
2023-08-31T07:28:04.478Z,19.68
2023-08-31T07:31:43.776Z,19.76
2023-08-31T07:46:18.426Z,20.86
2023-08-31T07:49:11.056Z,20.96
2023-08-31T08:03:26.177Z,21.84
2023-08-31T08:17:03.860Z,23.36
2023-08-31T08:20:10.827Z,23.31
2023-08-31T08:24:49.905Z,23.13
2023-08-31T08:38:01.532Z,22.80
2023-08-31T08:51:22.220Z,23.97
2023-08-31T08:53:52.059Z,24.34
2023-08-31T08:56:46.116Z,24.13
2023-08-31T08:59:20.556Z,24.32
2023-08-31T09:33:10.080Z,24.95
2023-08-31T09:36:30.924Z,25.17
2023-08-31T09:39:38.979Z,24.90
2023-08-31T09:43:28.536Z,25.28
2023-08-31T09:47:27.918Z,25.60
2023-08-31T09:50:35.918Z,25.31
2023-08-31T09:54:11.049Z,25.46
2023-08-31T09:56:46.449Z,25.21
2023-08-31T09:59:20.448Z,25.29
2023-08-31T10:01:49.245Z,25.31
2023-08-31T10:04:18.387Z,25.73
2023-08-31T10:27:22.222Z,27.14
2023-08-31T10:44:01.626Z,26.02
2023-08-31T10:48:02.329Z,25.89
2023-08-31T11:29:20.462Z,25.62
2023-08-31T11:32:12.709Z,25.62
2023-08-31T11:35:47.018Z,25.92
2023-08-31T11:39:28.021Z,26.20
2023-08-31T11:43:14.234Z,25.70
2023-08-31T11:45:45.660Z,25.45
2023-08-31T11:48:14.047Z,25.88
2023-08-31T11:50:43.655Z,26.32
2023-08-31T11:53:15.753Z,25.81
2023-08-31T11:58:14.489Z,26.08
2023-08-31T12:02:12.322Z,26.26
2023-08-31T12:05:50.045Z,26.27
2023-08-31T12:09:13.206Z,26.38
2023-08-31T12:12:58.614Z,26.74
2023-08-31T12:16:40.155Z,27.17
2023-08-31T12:20:34.268Z,26.99
2023-08-31T12:23:23.358Z,26.74
2023-08-31T12:27:18.270Z,27.30
2023-08-31T12:30:48.894Z,26.93
2023-08-31T12:34:25.376Z,26.92
2023-08-31T12:38:27.779Z,27.00
2023-08-31T12:41:34.704Z,27.67
2023-08-31T13:00:28.954Z,28.19
2023-08-31T13:04:11.628Z,28.84
2023-08-31T13:07:44.493Z,27.68
2023-08-31T13:11:42.426Z,27.28
2023-08-31T13:15:03.542Z,27.42
2023-08-31T13:19:00.095Z,26.68
2023-08-31T13:22:39.466Z,26.62
2023-08-31T13:26:18.741Z,27.54
2023-08-31T13:29:34.517Z,28.31
2023-08-31T13:33:26.421Z,28.05
2023-08-31T14:01:27.726Z,25.32
2023-08-31T14:15:04.516Z,23.57
2023-08-31T14:17:32.032Z,23.25
2023-08-31T14:20:06.407Z,22.60
2023-08-31T14:22:43.420Z,22.04
2023-08-31T14:25:12.532Z,21.96
2023-08-31T14:27:39.647Z,21.65
2023-08-31T14:30:09.391Z,21.47
2023-08-31T14:32:35.917Z,21.52
2023-08-31T14:35:06.288Z,21.61
2023-08-31T14:37:33.024Z,21.59
2023-08-31T14:39:59.677Z,21.40
2023-08-31T14:42:26.358Z,21.13
2023-08-31T14:44:53.415Z,20.89
2023-08-31T14:47:21.783Z,20.67
2023-08-31T14:49:48.290Z,20.50
2023-08-31T14:52:15.988Z,20.53
2023-08-31T14:54:42.708Z,20.09
2023-08-31T14:57:09.456Z,19.51
2023-08-31T14:59:36.016Z,19.33
2023-08-31T15:03:29.513Z,19.03
2023-08-31T15:17:53.979Z,17.47
2023-08-31T15:20:43.974Z,17.45
2023-08-31T15:24:23.725Z,17.57
2023-08-31T15:28:05.756Z,17.68
2023-08-31T15:32:05.470Z,18.67
2023-08-31T15:35:29.569Z,19.68
2023-08-31T15:39:13.848Z,19.93
2023-08-31T15:43:10.131Z,19.62
2023-08-31T15:46:35.173Z,19.41
2023-08-31T15:50:28.567Z,18.85
2023-08-31T16:04:14.014Z,20.55
2023-08-31T16:27:26.526Z,19.99
2023-08-31T17:52:19.201Z,17.74
2023-08-31T17:55:24.449Z,17.68
2023-08-31T17:59:23.000Z,17.63
2023-08-31T18:02:52.555Z,17.68
2023-08-31T18:16:49.930Z,17.31
2023-08-31T18:19:53.789Z,17.39
2023-08-31T18:23:19.201Z,17.35
2023-08-31T18:51:07.004Z,17.23
2023-08-31T19:00:06.182Z,16.94
2023-08-31T19:03:18.091Z,16.96
2023-08-31T19:23:37.290Z,16.88
2023-08-31T20:55:37.686Z,15.93
2023-08-31T22:04:17.524Z,15.46
2023-08-31T23:46:24.667Z,13.82
